Time;durP1;ratioP1;P1;durP2;ratioP2;P2;SDS_P1;SDS_P2;PMS_P1;PMS_P2;Temp;Humidity;BMP_temperature;BMP_pressure;BME280_temperature;BME280_humidity;BME280_pressure;Samples;Min_cycle;Max_cycle;Signal;HPM_P1;HPM_P2
2021/12/04 00:00:52;;;;;;;29.73;18.27;;;;;;;;;;4980162;28;20078;-66
2021/12/04 00:03:18;;;;;;;26.17;18.23;;;;;;;;;;4981745;28;20046;-66
2021/12/04 00:05:52;;;;;;;29.85;18.75;;;;;;;;;;4977197;28;20042;-66
2021/12/04 00:08:18;;;;;;;26.25;17.55;;;;;;;;;;4962630;28;20063;-67
2021/12/04 00:10:44;;;;;;;30.25;19.17;;;;;;;;;;4976472;28;20054;-66
2021/12/04 00:13:10;;;;;;;29.42;18.08;;;;;;;;;;4980475;28;20081;-67
2021/12/04 00:15:37;;;;;;;27.00;18.55;;;;;;;;;;4979953;28;20073;-66
2021/12/04 00:18:03;;;;;;;26.90;17.92;;;;;;;;;;4981674;28;20060;-67
2021/12/04 00:20:30;;;;;;;29.70;18.40;;;;;;;;;;4981913;28;20490;-67
2021/12/04 00:22:59;;;;;;;30.55;18.55;;;;;;;;;;4978999;28;20492;-67
2021/12/04 00:25:25;;;;;;;28.80;18.55;;;;;;;;;;4976098;28;20050;-66
2021/12/04 00:27:51;;;;;;;29.55;17.42;;;;;;;;;;4977631;28;20068;-67
2021/12/04 00:30:17;;;;;;;26.13;17.35;;;;;;;;;;4978214;28;20110;-66
2021/12/04 00:32:53;;;;;;;28.85;17.85;;;;;;;;;;4978879;28;20039;-67
2021/12/04 00:35:34;;;;;;;30.58;18.08;;;;;;;;;;4975051;28;20530;-67
2021/12/04 00:43:23;;;;;;;26.58;17.55;;;;;;;;;;4977709;28;20042;-67
2021/12/04 00:51:19;;;;;;;26.90;16.90;;;;;;;;;;4978829;28;20092;-67
2021/12/04 00:53:45;;;;;;;27.55;17.05;;;;;;;;;;4980249;28;20042;-67
2021/12/04 00:56:11;;;;;;;22.10;15.63;;;;;;;;;;4980448;28;20527;-66
2021/12/04 00:58:37;;;;;;;24.00;16.42;;;;;;;;;;4979199;28;20119;-67
2021/12/04 01:01:03;;;;;;;23.27;15.93;;;;;;;;;;4976612;28;20058;-67
2021/12/04 01:03:29;;;;;;;24.50;15.65;;;;;;;;;;4976345;28;20051;-67
2021/12/04 01:05:55;;;;;;;21.02;15.30;;;;;;;;;;4976933;28;20766;-67
2021/12/04 01:08:21;;;;;;;17.63;14.25;;;;;;;;;;4976903;28;20491;-67
2021/12/04 01:10:47;;;;;;;19.48;14.02;;;;;;;;;;4978453;28;20050;-67
2021/12/04 01:13:14;;;;;;;20.05;14.52;;;;;;;;;;4983755;28;20142;-67
2021/12/04 01:15:41;;;;;;;19.38;14.18;;;;;;;;;;4981414;28;20822;-67
2021/12/04 01:18:07;;;;;;;16.85;13.65;;;;;;;;;;4984545;28;20053;-66
2021/12/04 01:20:33;;;;;;;17.85;14.07;;;;;;;;;;4976150;28;20046;-67
2021/12/04 01:22:59;;;;;;;16.30;12.85;;;;;;;;;;4980813;28;20057;-67
2021/12/04 01:25:26;;;;;;;14.30;11.55;;;;;;;;;;4976727;28;20042;-67
2021/12/04 01:27:52;;;;;;;15.48;12.27;;;;;;;;;;4979694;28;20054;-67
2021/12/04 01:30:18;;;;;;;13.95;11.52;;;;;;;;;;4979373;28;20051;-67
2021/12/04 01:32:44;;;;;;;16.10;12.63;;;;;;;;;;4985590;28;20074;-66
2021/12/04 01:35:10;;;;;;;13.10;11.15;;;;;;;;;;4975452;28;20042;-67
2021/12/04 01:37:36;;;;;;;17.27;11.88;;;;;;;;;;4980647;28;20034;-67
2021/12/04 01:40:03;;;;;;;16.70;12.40;;;;;;;;;;4985455;28;20035;-67
2021/12/04 01:42:32;;;;;;;15.70;11.93;;;;;;;;;;4982297;28;20128;-66
2021/12/04 01:44:58;;;;;;;15.88;11.57;;;;;;;;;;4978021;28;20046;-67
2021/12/04 01:47:24;;;;;;;14.05;10.77;;;;;;;;;;4982459;28;20046;-67
2021/12/04 01:49:52;;;;;;;14.25;11.52;;;;;;;;;;4979904;28;20039;-67
2021/12/04 01:52:18;;;;;;;15.18;11.20;;;;;;;;;;4970207;28;20065;-66
2021/12/04 01:54:45;;;;;;;14.27;11.77;;;;;;;;;;4979430;28;20104;-66
2021/12/04 01:57:14;;;;;;;13.75;11.30;;;;;;;;;;4981667;28;20069;-66
2021/12/04 01:59:41;;;;;;;14.60;11.88;;;;;;;;;;4985024;28;20111;-66
2021/12/04 02:02:07;;;;;;;13.85;11.55;;;;;;;;;;4981353;28;20556;-66
2021/12/04 02:04:33;;;;;;;14.70;11.55;;;;;;;;;;4984557;28;21099;-67
2021/12/04 02:07:04;;;;;;;14.43;11.75;;;;;;;;;;4982842;28;20070;-67
2021/12/04 02:09:33;;;;;;;12.85;11.10;;;;;;;;;;4968445;28;20464;-67
2021/12/04 02:12:03;;;;;;;13.55;11.20;;;;;;;;;;4981743;28;20057;-67
2021/12/04 02:14:29;;;;;;;13.25;11.65;;;;;;;;;;4985967;28;20049;-67
2021/12/04 02:16:55;;;;;;;12.60;10.88;;;;;;;;;;4983489;28;20042;-66
2021/12/04 02:19:21;;;;;;;13.27;11.70;;;;;;;;;;4985997;28;20058;-67
2021/12/04 02:21:47;;;;;;;14.20;12.05;;;;;;;;;;4983930;28;20051;-67
2021/12/04 02:24:14;;;;;;;18.30;12.10;;;;;;;;;;4969138;28;20413;-67
2021/12/04 02:26:40;;;;;;;14.25;12.15;;;;;;;;;;4982316;28;20057;-66
2021/12/04 02:29:06;;;;;;;14.93;11.93;;;;;;;;;;4982711;28;20489;-67
2021/12/04 02:31:32;;;;;;;14.80;11.52;;;;;;;;;;4984807;28;20502;-66
2021/12/04 02:33:58;;;;;;;15.15;11.43;;;;;;;;;;4980011;28;20145;-67
2021/12/04 02:36:24;;;;;;;14.77;12.20;;;;;;;;;;4983698;28;20061;-66
2021/12/04 02:38:53;;;;;;;14.05;11.73;;;;;;;;;;4982642;28;20047;-66
2021/12/04 02:41:20;;;;;;;14.93;11.80;;;;;;;;;;4982506;28;20110;-67
2021/12/04 02:43:47;;;;;;;13.18;11.07;;;;;;;;;;4986413;28;20099;-67
2021/12/04 02:46:17;;;;;;;13.73;11.07;;;;;;;;;;4982897;28;20054;-67
2021/12/04 02:48:44;;;;;;;13.25;11.13;;;;;;;;;;4979373;28;20387;-67
2021/12/04 02:51:10;;;;;;;14.68;11.90;;;;;;;;;;4983400;28;20430;-67
2021/12/04 02:53:36;;;;;;;15.00;11.57;;;;;;;;;;4986108;28;20053;-66
2021/12/04 02:56:05;;;;;;;14.63;11.73;;;;;;;;;;4967611;28;20364;-67
2021/12/04 02:58:32;;;;;;;13.57;10.85;;;;;;;;;;4985733;28;20482;-66
2021/12/04 03:00:58;;;;;;;12.75;10.00;;;;;;;;;;4986339;28;20054;-67
2021/12/04 03:03:24;;;;;;;14.65;11.48;;;;;;;;;;4987450;28;20036;-67
2021/12/04 03:05:51;;;;;;;14.80;11.07;;;;;;;;;;4980651;28;20047;-67
2021/12/04 03:08:18;;;;;;;12.85;10.48;;;;;;;;;;4977202;28;20062;-67
2021/12/04 03:10:44;;;;;;;13.30;10.77;;;;;;;;;;4979859;28;20045;-67
2021/12/04 03:13:10;;;;;;;13.23;10.80;;;;;;;;;;4982951;28;20134;-67
2021/12/04 03:15:38;;;;;;;12.43;10.52;;;;;;;;;;4986574;28;20050;-67
2021/12/04 03:18:05;;;;;;;12.35;10.25;;;;;;;;;;4985247;28;20046;-66
2021/12/04 03:20:32;;;;;;;11.48;9.43;;;;;;;;;;4983749;28;20054;-67
2021/12/04 03:23:01;;;;;;;14.13;10.80;;;;;;;;;;4982999;28;20061;-66
2021/12/04 03:25:28;;;;;;;11.40;9.90;;;;;;;;;;4979846;28;20055;-67
2021/12/04 03:27:54;;;;;;;13.30;10.32;;;;;;;;;;4980997;28;20395;-66
2021/12/04 03:30:47;;;;;;;13.10;10.90;;;;;;;;;;4984956;28;20034;-67
2021/12/04 03:41:02;;;;;;;11.38;9.50;;;;;;;;;;4983497;28;20601;-67
2021/12/04 03:43:29;;;;;;;11.30;9.70;;;;;;;;;;4984975;28;20043;-67
2021/12/04 03:45:59;;;;;;;11.60;9.77;;;;;;;;;;4982413;28;20114;-67
2021/12/04 03:50:54;;;;;;;16.27;10.23;;;;;;;;;;4985479;28;20462;-67
2021/12/04 03:53:20;;;;;;;11.65;9.70;;;;;;;;;;4984681;28;20053;-67
2021/12/04 03:55:46;;;;;;;12.73;10.18;;;;;;;;;;4984963;28;20133;-66
2021/12/04 03:58:12;;;;;;;12.18;9.48;;;;;;;;;;4980731;28;20057;-67
2021/12/04 04:00:38;;;;;;;13.30;9.82;;;;;;;;;;4983621;28;20053;-67
2021/12/04 04:03:05;;;;;;;11.07;9.25;;;;;;;;;;4986479;28;20061;-66
2021/12/04 04:05:31;;;;;;;11.35;9.82;;;;;;;;;;4986674;28;20571;-67
2021/12/04 04:07:57;;;;;;;11.02;9.50;;;;;;;;;;4981067;28;20055;-66
2021/12/04 04:10:23;;;;;;;12.30;9.70;;;;;;;;;;4980633;28;20050;-66
2021/12/04 04:12:49;;;;;;;12.27;10.45;;;;;;;;;;4985633;28;20053;-66
2021/12/04 04:15:16;;;;;;;11.60;9.65;;;;;;;;;;4985384;28;20065;-66
2021/12/04 04:17:43;;;;;;;11.48;9.65;;;;;;;;;;4966525;28;20042;-67
2021/12/04 04:20:14;;;;;;;11.90;10.20;;;;;;;;;;4981333;28;20577;-67
2021/12/04 04:22:41;;;;;;;10.68;9.50;;;;;;;;;;4985206;28;20042;-67
2021/12/04 04:25:08;;;;;;;12.15;10.32;;;;;;;;;;4980626;28;20661;-67
2021/12/04 04:27:34;;;;;;;11.85;9.93;;;;;;;;;;4982804;28;20054;-66
2021/12/04 04:30:00;;;;;;;12.70;10.27;;;;;;;;;;4981530;28;20491;-66
2021/12/04 04:32:26;;;;;;;11.93;10.23;;;;;;;;;;4985719;28;20161;-67
2021/12/04 04:34:55;;;;;;;12.65;10.20;;;;;;;;;;4982818;28;20041;-66
2021/12/04 04:37:28;;;;;;;13.40;10.18;;;;;;;;;;4984123;28;20448;-66
2021/12/04 05:15:14;;;;;;;18.48;11.45;;;;;;;;;;4982467;28;20070;-66
2021/12/04 05:20:31;;;;;;;16.13;12.00;;;;;;;;;;4981243;28;20082;-66
2021/12/04 05:22:58;;;;;;;15.38;11.80;;;;;;;;;;4983892;28;20050;-66
2021/12/04 05:25:24;;;;;;;13.70;11.30;;;;;;;;;;4967003;28;20065;-67
2021/12/04 05:27:50;;;;;;;15.93;12.25;;;;;;;;;;4976543;28;20044;-66
2021/12/04 05:30:16;;;;;;;18.85;12.10;;;;;;;;;;4983434;28;20046;-66
2021/12/04 05:32:42;;;;;;;16.23;12.00;;;;;;;;;;4983112;28;20068;-66
2021/12/04 05:35:08;;;;;;;16.70;12.07;;;;;;;;;;4979218;28;20034;-66
2021/12/04 05:37:34;;;;;;;15.50;12.27;;;;;;;;;;4979783;28;20092;-66
2021/12/04 05:40:01;;;;;;;18.58;12.52;;;;;;;;;;4982379;28;20034;-67
2021/12/04 05:42:27;;;;;;;18.15;12.90;;;;;;;;;;4979453;28;20051;-66
2021/12/04 05:44:53;;;;;;;20.05;12.90;;;;;;;;;;4982033;28;20057;-66
2021/12/04 05:47:24;;;;;;;15.93;12.20;;;;;;;;;;4984723;28;20096;-67
2021/12/04 05:50:00;;;;;;;20.33;13.27;;;;;;;;;;4980148;28;20244;-66
2021/12/04 05:52:41;;;;;;;17.70;12.57;;;;;;;;;;4981334;28;20128;-66
2021/12/04 05:55:16;;;;;;;19.65;12.18;;;;;;;;;;4982900;28;20046;-66
2021/12/04 05:57:43;;;;;;;17.95;11.98;;;;;;;;;;4980215;28;20093;-66
2021/12/04 06:00:11;;;;;;;22.23;12.68;;;;;;;;;;4979737;28;20046;-67
2021/12/04 06:02:37;;;;;;;17.92;12.38;;;;;;;;;;4963677;28;20046;-66
2021/12/04 06:05:03;;;;;;;19.23;12.68;;;;;;;;;;4983884;28;20034;-66
2021/12/04 06:07:29;;;;;;;23.67;13.80;;;;;;;;;;4980257;28;20042;-66
2021/12/04 06:09:56;;;;;;;19.23;13.25;;;;;;;;;;4965045;28;20069;-66
2021/12/04 06:12:22;;;;;;;19.00;14.00;;;;;;;;;;4980648;28;20082;-66
2021/12/04 06:14:49;;;;;;;19.15;12.38;;;;;;;;;;4981955;28;20070;-66
2021/12/04 06:17:18;;;;;;;22.50;13.90;;;;;;;;;;4981351;28;20407;-67
2021/12/04 06:22:38;;;;;;;22.17;13.70;;;;;;;;;;4980707;28;20153;-66
2021/12/04 06:25:09;;;;;;;21.40;13.27;;;;;;;;;;4975028;28;20038;-66
2021/12/04 06:27:36;;;;;;;21.35;13.23;;;;;;;;;;4980274;28;20035;-66
2021/12/04 06:30:04;;;;;;;23.02;13.35;;;;;;;;;;4978406;28;20068;-66
2021/12/04 06:32:30;;;;;;;21.42;12.60;;;;;;;;;;4976664;28;20371;-66
2021/12/04 06:34:56;;;;;;;21.00;13.63;;;;;;;;;;4982634;28;20392;-66
2021/12/04 06:37:22;;;;;;;23.83;13.50;;;;;;;;;;4978502;28;20049;-66
2021/12/04 06:39:48;;;;;;;24.77;14.57;;;;;;;;;;4989113;28;20054;-67
2021/12/04 06:42:14;;;;;;;24.80;14.13;;;;;;;;;;4985071;28;20125;-66
2021/12/04 06:44:40;;;;;;;22.83;13.70;;;;;;;;;;4985608;28;20364;-66
2021/12/04 06:47:06;;;;;;;23.92;13.98;;;;;;;;;;4984833;28;20047;-66
2021/12/04 06:49:39;;;;;;;28.20;15.00;;;;;;;;;;4986822;28;20099;-66
2021/12/04 06:52:09;;;;;;;25.13;13.82;;;;;;;;;;4983254;28;20047;-66
2021/12/04 06:54:38;;;;;;;25.00;14.00;;;;;;;;;;5001326;28;20054;-66
2021/12/04 06:57:09;;;;;;;24.42;14.30;;;;;;;;;;4983729;28;20054;-67
2021/12/04 06:59:37;;;;;;;25.83;14.23;;;;;;;;;;4984050;28;20046;-66
2021/12/04 07:02:04;;;;;;;23.20;13.85;;;;;;;;;;4983395;28;20073;-66
2021/12/04 07:04:34;;;;;;;26.40;14.73;;;;;;;;;;4983299;28;20066;-66
2021/12/04 07:07:01;;;;;;;29.30;14.75;;;;;;;;;;4985137;28;20042;-66
2021/12/04 07:09:27;;;;;;;24.88;14.55;;;;;;;;;;4986337;28;20380;-66
2021/12/04 07:11:54;;;;;;;24.45;14.65;;;;;;;;;;4987012;28;20038;-66
2021/12/04 07:14:20;;;;;;;23.27;14.02;;;;;;;;;;4986854;28;21416;-66
2021/12/04 07:16:47;;;;;;;29.35;14.73;;;;;;;;;;4969196;28;20068;-66
2021/12/04 07:19:13;;;;;;;24.00;13.32;;;;;;;;;;4982403;28;20043;-65
2021/12/04 07:21:39;;;;;;;22.75;12.98;;;;;;;;;;4983789;28;20046;-66
2021/12/04 07:24:05;;;;;;;25.85;13.65;;;;;;;;;;4983867;28;20394;-66
2021/12/04 07:26:31;;;;;;;18.45;11.73;;;;;;;;;;4984691;28;20387;-66
2021/12/04 07:28:57;;;;;;;22.13;12.40;;;;;;;;;;4983659;28;20439;-66
2021/12/04 07:31:23;;;;;;;20.90;12.63;;;;;;;;;;4988206;28;20529;-66
2021/12/04 07:33:50;;;;;;;17.85;11.93;;;;;;;;;;4984989;28;20046;-66
2021/12/04 07:36:16;;;;;;;17.63;11.43;;;;;;;;;;4968132;28;20547;-66
2021/12/04 07:38:43;;;;;;;15.82;10.50;;;;;;;;;;4985165;28;21296;-66
2021/12/04 07:41:10;;;;;;;15.30;10.52;;;;;;;;;;4983907;28;20069;-66
2021/12/04 07:43:36;;;;;;;14.98;10.48;;;;;;;;;;4980304;28;20046;-66
2021/12/04 07:46:02;;;;;;;17.13;10.43;;;;;;;;;;4985009;28;20042;-66
2021/12/04 07:48:28;;;;;;;14.75;10.40;;;;;;;;;;4981076;28;20030;-65
2021/12/04 07:50:55;;;;;;;16.25;11.00;;;;;;;;;;4982973;28;20049;-66
2021/12/04 07:53:22;;;;;;;19.23;11.93;;;;;;;;;;4981817;28;20095;-67
2021/12/04 07:55:48;;;;;;;17.40;11.60;;;;;;;;;;4967436;28;20042;-66
2021/12/04 07:58:14;;;;;;;22.35;11.88;;;;;;;;;;4963254;28;20049;-67
2021/12/04 08:00:41;;;;;;;19.02;11.15;;;;;;;;;;4981217;28;20050;-66
2021/12/04 08:03:07;;;;;;;20.15;12.90;;;;;;;;;;4968605;28;20043;-67
2021/12/04 08:05:33;;;;;;;20.67;12.40;;;;;;;;;;4979633;28;20073;-67
2021/12/04 08:08:01;;;;;;;20.67;12.75;;;;;;;;;;4984590;28;20043;-66
2021/12/04 08:10:29;;;;;;;25.70;13.70;;;;;;;;;;4980102;28;20088;-67
2021/12/04 08:12:56;;;;;;;24.00;14.35;;;;;;;;;;4981456;28;20505;-67
2021/12/04 08:15:22;;;;;;;23.52;14.00;;;;;;;;;;4968796;28;20133;-67
2021/12/04 08:17:48;;;;;;;25.00;14.02;;;;;;;;;;4983383;28;20042;-67
2021/12/04 08:20:15;;;;;;;31.95;15.23;;;;;;;;;;4984675;28;20042;-66
2021/12/04 08:22:42;;;;;;;26.98;14.57;;;;;;;;;;5002287;28;20053;-66
2021/12/04 08:25:09;;;;;;;30.67;16.23;;;;;;;;;;4984651;28;20110;-67
2021/12/04 08:27:35;;;;;;;31.75;15.85;;;;;;;;;;4983066;28;20429;-67
2021/12/04 08:30:03;;;;;;;32.85;15.30;;;;;;;;;;4984558;28;20487;-65
2021/12/04 08:32:29;;;;;;;27.45;15.02;;;;;;;;;;4983488;28;20049;-65
2021/12/04 08:34:56;;;;;;;24.48;13.95;;;;;;;;;;4968028;28;20362;-64
2021/12/04 08:37:22;;;;;;;26.90;14.63;;;;;;;;;;4984204;28;20058;-65
2021/12/04 08:39:49;;;;;;;29.20;16.05;;;;;;;;;;4981285;28;20107;-65
2021/12/04 08:42:16;;;;;;;33.00;15.68;;;;;;;;;;4981210;28;20063;-66
2021/12/04 08:44:43;;;;;;;31.60;15.35;;;;;;;;;;4983826;28;20038;-66
2021/12/04 08:47:10;;;;;;;30.75;15.25;;;;;;;;;;4982252;28;20050;-66
2021/12/04 08:49:36;;;;;;;28.92;15.05;;;;;;;;;;4978638;28;20043;-66
2021/12/04 08:52:04;;;;;;;32.60;15.55;;;;;;;;;;4982106;28;20046;-66
2021/12/04 08:54:35;;;;;;;29.05;15.23;;;;;;;;;;4980549;28;20506;-66
2021/12/04 08:57:02;;;;;;;31.55;15.85;;;;;;;;;;4983453;28;20368;-66
2021/12/04 08:59:29;;;;;;;28.42;15.88;;;;;;;;;;4982334;28;20115;-66
2021/12/04 09:01:55;;;;;;;26.33;13.80;;;;;;;;;;4983638;28;20050;-65
2021/12/04 09:04:25;;;;;;;28.15;15.20;;;;;;;;;;4980698;28;20494;-66
2021/12/04 09:06:52;;;;;;;29.48;15.93;;;;;;;;;;4980916;28;20088;-65
2021/12/04 09:09:18;;;;;;;27.65;15.25;;;;;;;;;;4981096;28;20378;-65
2021/12/04 09:11:53;;;;;;;33.80;15.52;;;;;;;;;;4986321;28;20050;-66
2021/12/04 09:14:21;;;;;;;27.45;15.40;;;;;;;;;;4983600;28;20050;-66
2021/12/04 09:16:51;;;;;;;30.30;15.68;;;;;;;;;;4982958;28;20061;-66
2021/12/04 09:19:17;;;;;;;24.90;14.50;;;;;;;;;;4979365;28;20066;-65
2021/12/04 09:21:43;;;;;;;24.25;13.80;;;;;;;;;;4981805;28;20038;-65
2021/12/04 09:24:13;;;;;;;21.67;12.73;;;;;;;;;;4964797;28;20076;-65
2021/12/04 23:34:47;;;;;;;9.50;4.78;;;3.70;99.90;;;;;;5109388;28;20047;-71
2021/12/04 23:37:39;;;;;;;15.05;5.28;;;3.70;99.90;;;;;;5081865;28;20051;-72
